Terminal Aerodrome Forecast
Issued by NWS

Home | Current Version | Previous Version | Graphics & Text | Print | Product List | Glossary Off
Versions: 1 2 3 4 5 6 7 8 9 10 11 12 13 14 15 16 17 18

726
FTUS42 KMHX 172339
TAFPGV
TAF
KPGV 172339Z 1800/1824 21007KT P6SM VCSH BKN080
     FM180600 22011KT P6SM VCSH BKN070
     FM180900 23010KT P6SM VCSH BKN030
     FM181100 24009KT P6SM -SHRA BKN014
     FM181600 27011KT P6SM BKN090
     FM181900 29011KT P6SM SCT250
      AMD LTD TO CLD VIS AND WIND=

USA.gov is the U.S. government's official web portal to all federal, state and local government web resources and services.